createdAt,value
2018-12-31T00:03:22.353Z,102956.81
2018-12-31T00:05:51.294Z,102957.70
2018-12-31T00:08:39.231Z,102958.97
2018-12-31T00:11:27.310Z,102968.73
2018-12-31T00:13:56.468Z,102974.18
2018-12-31T00:16:44.555Z,102970.38
2018-12-31T00:19:32.460Z,102967.77
2018-12-31T00:22:20.899Z,102962.67
2018-12-31T00:25:08.849Z,102961.73
2018-12-31T00:27:56.886Z,102950.37
2018-12-31T00:30:44.970Z,102942.28
2018-12-31T00:33:32.876Z,102957.45
2018-12-31T00:36:20.961Z,102957.38
2018-12-31T00:39:09.001Z,102948.84
2018-12-31T00:41:57.078Z,102946.23
2018-12-31T00:44:25.955Z,102950.34
2018-12-31T00:47:14.038Z,102957.83
2018-12-31T00:50:01.935Z,102955.14
2018-12-31T00:52:50.025Z,102954.13
2018-12-31T00:55:38.067Z,102960.17
2018-12-31T00:58:06.985Z,102960.62
2018-12-31T01:00:54.888Z,102966.95
2018-12-31T01:03:42.981Z,102960.66
2018-12-31T01:06:31.014Z,102954.28
2018-12-31T01:09:19.041Z,102948.47
2018-12-31T01:12:06.939Z,102943.41
2018-12-31T01:14:55.050Z,102956.11
2018-12-31T01:17:43.094Z,102951.94
2018-12-31T01:23:24.947Z,102954.44
2018-12-31T01:26:13.030Z,102957.42
2018-12-31T01:29:01.252Z,102958.23
2018-12-31T01:31:49.339Z,102971.42
2018-12-31T01:34:37.431Z,102963.00
2018-12-31T01:37:25.463Z,102948.33
2018-12-31T01:40:13.419Z,102952.13
2018-12-31T01:43:01.457Z,102946.38
2018-12-31T01:45:49.555Z,102942.17
2018-12-31T01:51:44.781Z,102942.81
2018-12-31T01:54:32.826Z,102939.91
2018-12-31T01:57:20.909Z,102942.06
2018-12-31T02:00:08.975Z,102948.70
2018-12-31T02:02:57.066Z,102940.05
2018-12-31T02:05:45.109Z,102959.35
2018-12-31T02:08:33.235Z,102965.84
2018-12-31T02:11:21.283Z,102977.72
2018-12-31T02:14:09.383Z,102987.38
2018-12-31T02:16:57.278Z,102978.73
2018-12-31T02:20:05.781Z,102986.45
2018-12-31T02:22:53.825Z,102993.19
2018-12-31T02:25:41.905Z,102980.28
2018-12-31T02:28:29.944Z,102981.21
2018-12-31T02:31:38.753Z,102987.21
2018-12-31T02:34:26.657Z,102982.14
2018-12-31T02:37:14.743Z,102986.39
2018-12-31T02:40:02.799Z,102992.31
2018-12-31T02:45:45.182Z,103007.27
2018-12-31T02:48:33.279Z,102993.42
2018-12-31T02:51:21.345Z,102998.19
2018-12-31T02:54:09.438Z,102994.01
2018-12-31T02:56:57.423Z,102981.36
2018-12-31T02:59:45.510Z,102977.59
2018-12-31T03:02:33.556Z,102972.97
2018-12-31T03:05:21.510Z,102979.75
2018-12-31T03:08:29.970Z,102983.55
2018-12-31T03:11:18.057Z,102978.07
2018-12-31T03:14:06.089Z,102972.14
2018-12-31T03:16:54.186Z,102973.86
2018-12-31T03:19:42.209Z,102967.13
2018-12-31T03:22:30.577Z,102967.95
2018-12-31T03:25:18.614Z,102963.78
2018-12-31T03:28:06.705Z,102963.40
2018-12-31T03:30:54.796Z,102954.55
2018-12-31T03:33:42.764Z,102945.30
2018-12-31T03:36:30.842Z,102937.27
2018-12-31T03:39:18.824Z,102941.97
2018-12-31T03:45:07.679Z,102933.47
2018-12-31T03:47:55.726Z,102941.08
2018-12-31T03:50:43.841Z,102939.81
2018-12-31T03:53:31.944Z,102942.00
2018-12-31T03:59:27.120Z,102950.44
2018-12-31T04:02:15.469Z,102955.44
2018-12-31T04:05:03.545Z,102966.55
2018-12-31T04:07:53.124Z,102955.98
2018-12-31T04:13:35.229Z,102955.61
2018-12-31T04:16:23.306Z,102949.33
2018-12-31T04:19:11.391Z,102946.41
2018-12-31T04:21:59.422Z,102951.03
2018-12-31T04:24:47.505Z,102949.83
2018-12-31T04:27:35.537Z,102949.89
2018-12-31T04:33:19.185Z,102949.13
2018-12-31T04:36:07.099Z,102944.95
2018-12-31T04:38:55.202Z,102944.95
2018-12-31T04:41:43.237Z,102950.50
2018-12-31T04:44:31.194Z,102953.45
2018-12-31T04:50:07.389Z,102972.09
2018-12-31T04:52:56.594Z,102973.08
2018-12-31T04:55:45.242Z,102976.53
2018-12-31T04:58:33.266Z,102974.89
2018-12-31T05:01:21.201Z,102973.23
2018-12-31T05:04:09.164Z,102967.77
2018-12-31T05:06:57.212Z,102968.25
2018-12-31T05:09:45.559Z,102959.78
2018-12-31T05:15:40.954Z,102963.17
2018-12-31T05:18:29.022Z,102953.91
2018-12-31T05:21:17.109Z,102947.17
2018-12-31T05:24:05.145Z,102952.70
2018-12-31T05:26:53.099Z,102951.89
2018-12-31T05:29:41.181Z,102951.48
2018-12-31T05:32:29.222Z,102937.11
2018-12-31T05:35:17.307Z,102942.21
2018-12-31T05:38:05.465Z,102943.04
2018-12-31T05:40:53.541Z,102937.99
2018-12-31T05:43:41.624Z,102935.87
2018-12-31T05:49:36.896Z,102955.73
2018-12-31T05:52:24.942Z,102955.73
2018-12-31T05:55:13.038Z,102959.16
2018-12-31T05:58:00.979Z,102969.31
2018-12-31T06:00:29.917Z,102973.92
2018-12-31T06:03:18.107Z,102976.14
2018-12-31T06:09:13.283Z,102975.78
2018-12-31T06:12:01.376Z,102979.20
2018-12-31T06:15:09.879Z,102987.70
2018-12-31T06:17:57.961Z,102991.61
2018-12-31T06:20:45.993Z,102986.11
2018-12-31T06:23:14.901Z,102987.47
2018-12-31T06:26:02.981Z,102977.34
2018-12-31T06:28:51.467Z,102985.40
2018-12-31T06:34:46.639Z,102986.31
2018-12-31T06:37:34.682Z,102973.23
2018-12-31T06:40:22.773Z,102971.54
2018-12-31T06:43:10.806Z,102968.61
2018-12-31T06:45:58.896Z,102975.80
2018-12-31T06:48:46.951Z,102978.28
2018-12-31T06:51:35.035Z,102985.95
2018-12-31T06:54:23.127Z,102974.97
2018-12-31T06:57:11.209Z,102974.08
2018-12-31T06:59:59.637Z,102989.33
2018-12-31T07:02:47.683Z,102992.69
2018-12-31T07:05:35.704Z,102991.03
2018-12-31T07:08:23.636Z,102997.00
2018-12-31T07:11:11.984Z,103009.55
2018-12-31T07:13:59.916Z,103012.98
2018-12-31T07:16:47.866Z,103023.94
2018-12-31T07:19:35.782Z,103015.88
2018-12-31T07:22:23.866Z,103016.82
2018-12-31T07:25:11.898Z,103021.55
2018-12-31T07:27:40.876Z,103021.62
2018-12-31T07:30:28.846Z,103017.34
2018-12-31T07:33:17.257Z,103020.36
2018-12-31T07:36:05.333Z,103022.02
2018-12-31T07:38:53.369Z,103025.88
2018-12-31T07:41:41.309Z,103031.47
2018-12-31T07:44:29.205Z,103025.17
2018-12-31T07:47:17.146Z,103027.88
2018-12-31T07:50:05.182Z,103027.05
2018-12-31T07:52:53.269Z,103028.41
2018-12-31T07:55:41.342Z,103021.23
2018-12-31T07:58:29.391Z,103041.50
2018-12-31T08:01:17.482Z,103035.53
2018-12-31T08:03:46.405Z,103029.73
2018-12-31T08:06:34.443Z,103030.62
2018-12-31T08:09:22.870Z,103042.83
2018-12-31T08:15:18.041Z,103053.46
2018-12-31T08:18:06.093Z,103059.23
2018-12-31T08:20:54.221Z,103069.09
2018-12-31T08:23:42.421Z,103061.55
2018-12-31T08:26:30.364Z,103069.66
2018-12-31T08:29:18.264Z,103054.34
2018-12-31T08:32:06.216Z,103045.87
2018-12-31T08:34:54.157Z,103046.42
2018-12-31T08:37:42.095Z,103052.44
2018-12-31T08:40:29.989Z,103053.69
2018-12-31T08:43:18.357Z,103040.59
2018-12-31T08:46:06.413Z,103039.89
2018-12-31T08:48:54.494Z,103053.02
2018-12-31T08:54:49.586Z,103044.56
2018-12-31T08:57:37.998Z,103039.40
2018-12-31T09:00:26.222Z,103035.17
2018-12-31T09:03:14.257Z,103042.05
2018-12-31T09:06:02.372Z,103036.20
2018-12-31T09:08:50.779Z,103028.27
2018-12-31T09:11:39.017Z,103030.44
2018-12-31T09:14:27.055Z,103010.63
2018-12-31T09:17:15.216Z,103015.52
2018-12-31T09:20:03.190Z,103018.69
2018-12-31T09:22:51.298Z,103028.19
2018-12-31T09:25:39.341Z,103025.81
2018-12-31T09:28:27.415Z,103015.31
2018-12-31T09:31:15.553Z,103009.45
2018-12-31T09:37:10.731Z,103023.45
2018-12-31T09:39:58.627Z,103028.11
2018-12-31T09:42:46.706Z,103023.93
2018-12-31T09:45:34.823Z,103013.25
2018-12-31T09:51:29.989Z,103014.10
2018-12-31T09:54:17.934Z,103012.69
2018-12-31T09:59:59.431Z,103010.92
2018-12-31T10:02:47.528Z,103017.26
2018-12-31T10:05:35.565Z,103019.43
2018-12-31T10:08:23.830Z,103014.31
2018-12-31T10:11:11.873Z,103023.14
2018-12-31T10:13:59.825Z,103022.87
2018-12-31T10:19:35.912Z,103021.27
2018-12-31T10:22:23.815Z,103027.48
2018-12-31T10:25:11.901Z,103025.73
2018-12-31T10:31:07.346Z,103026.45
2018-12-31T10:33:55.385Z,103013.69
2018-12-31T10:36:24.282Z,103014.60
2018-12-31T10:39:12.373Z,103014.92
2018-12-31T10:42:00.347Z,103013.29
2018-12-31T10:44:48.444Z,103002.94
2018-12-31T10:50:43.566Z,102985.45
2018-12-31T10:53:31.607Z,102990.55
2018-12-31T10:56:19.734Z,102985.56
2018-12-31T10:59:07.818Z,102972.37
2018-12-31T11:01:58.057Z,102969.90
2018-12-31T11:04:46.484Z,102975.50
2018-12-31T11:07:34.534Z,102970.36
2018-12-31T11:10:22.626Z,102969.12
2018-12-31T11:13:10.670Z,102969.66
2018-12-31T11:15:58.620Z,102976.41
2018-12-31T11:18:27.574Z,102962.70
2018-12-31T11:21:15.520Z,102962.72
2018-12-31T11:24:03.563Z,102957.53
2018-12-31T11:26:51.502Z,102961.82
2018-12-31T11:29:39.922Z,102960.58
2018-12-31T11:32:27.813Z,102952.14
2018-12-31T11:35:16.203Z,102952.66
2018-12-31T11:38:04.420Z,102946.38
2018-12-31T11:43:45.743Z,102936.73
2018-12-31T11:49:40.920Z,102928.25
2018-12-31T11:52:28.961Z,102923.05
2018-12-31T11:55:17.430Z,102925.66
2018-12-31T11:57:46.295Z,102923.11
2018-12-31T12:00:34.387Z,102926.11
2018-12-31T12:03:22.305Z,102924.45
2018-12-31T12:06:10.397Z,102927.06
2018-12-31T12:08:58.460Z,102920.73
2018-12-31T12:11:46.542Z,102918.16
2018-12-31T12:14:34.922Z,102913.44
2018-12-31T12:17:22.994Z,102912.64
2018-12-31T12:20:11.084Z,102913.02
2018-12-31T12:22:58.993Z,102905.78
2018-12-31T12:25:47.079Z,102896.78
2018-12-31T12:28:35.182Z,102900.20
2018-12-31T12:37:05.121Z,102889.24
2018-12-31T12:39:53.200Z,102901.13
2018-12-31T12:42:41.269Z,102899.81
2018-12-31T12:48:36.736Z,102881.63
2018-12-31T12:54:31.936Z,102866.41
2018-12-31T12:57:19.884Z,102862.97
2018-12-31T12:59:48.795Z,102859.99
2018-12-31T13:05:44.002Z,102855.36
2018-12-31T13:08:31.905Z,102851.92
2018-12-31T13:11:21.714Z,102842.12
2018-12-31T13:14:10.079Z,102842.47
2018-12-31T13:16:59.878Z,102851.77
2018-12-31T13:19:47.924Z,102841.15
2018-12-31T13:28:25.422Z,102857.16
2018-12-31T13:31:13.509Z,102849.03
2018-12-31T13:34:01.640Z,102851.50
2018-12-31T13:39:56.818Z,102846.23
2018-12-31T13:42:44.886Z,102846.25
2018-12-31T13:45:14.265Z,102839.36
2018-12-31T13:48:02.201Z,102846.59
2018-12-31T13:50:52.010Z,102848.24
2018-12-31T13:53:40.070Z,102845.97
2018-12-31T13:56:29.873Z,102859.48
2018-12-31T13:59:17.949Z,102863.73
2018-12-31T14:02:07.745Z,102868.77
2018-12-31T14:04:55.675Z,102865.78
2018-12-31T14:07:43.788Z,102854.13
2018-12-31T14:10:31.875Z,102857.50
2018-12-31T14:13:21.868Z,102868.04
2018-12-31T14:16:09.959Z,102853.05
2018-12-31T14:18:40.841Z,102853.50
2018-12-31T14:21:10.111Z,102850.09
2018-12-31T14:23:50.631Z,102847.82
2018-12-31T14:26:19.618Z,102845.70
2018-12-31T14:29:09.441Z,102854.05
2018-12-31T14:31:57.483Z,102849.40
2018-12-31T14:34:47.262Z,102848.45
2018-12-31T14:37:16.178Z,102848.00
2018-12-31T14:40:04.218Z,102840.23
2018-12-31T14:42:52.297Z,102838.98
2018-12-31T14:48:47.463Z,102846.55
2018-12-31T14:51:35.497Z,102851.64
2018-12-31T14:54:23.573Z,102841.95
2018-12-31T15:00:18.670Z,102836.80
2018-12-31T15:03:06.710Z,102843.45
2018-12-31T15:05:54.812Z,102836.34
2018-12-31T15:08:42.846Z,102832.53
2018-12-31T15:11:30.922Z,102826.98
2018-12-31T15:14:20.723Z,102829.53
2018-12-31T15:17:08.806Z,102818.50
2018-12-31T15:19:58.565Z,102815.52
2018-12-31T15:22:46.642Z,102805.30
2018-12-31T15:28:41.949Z,102802.33
2018-12-31T15:31:29.911Z,102814.21
2018-12-31T15:34:18.012Z,102813.40
2018-12-31T15:37:06.052Z,102812.14
2018-12-31T15:39:54.008Z,102806.56
2018-12-31T15:42:41.938Z,102807.77
2018-12-31T15:45:29.955Z,102817.21
2018-12-31T15:48:17.993Z,102814.17
2018-12-31T15:51:06.078Z,102821.38
2018-12-31T15:53:54.145Z,102807.42
2018-12-31T15:56:42.215Z,102814.21
2018-12-31T15:59:32.083Z,102800.55
2018-12-31T16:02:20.073Z,102801.90
2018-12-31T16:04:50.872Z,102799.37
2018-12-31T16:10:46.096Z,102791.33
2018-12-31T16:13:34.285Z,102806.14
2018-12-31T16:16:22.378Z,102801.09
2018-12-31T16:19:10.465Z,102803.27
2018-12-31T16:21:58.403Z,102797.81
2018-12-31T16:24:46.372Z,102797.02
2018-12-31T16:27:34.475Z,102799.51
2018-12-31T16:30:22.447Z,102810.12
2018-12-31T16:33:10.519Z,102797.38
2018-12-31T16:35:58.647Z,102789.34
2018-12-31T16:38:46.689Z,102789.79
2018-12-31T16:41:34.767Z,102773.73
2018-12-31T16:44:23.178Z,102771.12
2018-12-31T16:47:11.259Z,102772.41
2018-12-31T16:56:00.200Z,102761.03
2018-12-31T16:58:48.148Z,102770.37
2018-12-31T17:01:37.931Z,102779.34
2018-12-31T17:04:26.043Z,102773.92
2018-12-31T17:07:14.061Z,102768.00
2018-12-31T17:12:55.693Z,102764.52
2018-12-31T17:15:43.718Z,102761.64
2018-12-31T17:18:31.939Z,102748.44
2018-12-31T17:21:19.889Z,102739.59
2018-12-31T17:24:07.990Z,102751.91
2018-12-31T17:26:56.058Z,102737.88
2018-12-31T17:29:44.095Z,102744.27
2018-12-31T17:32:32.170Z,102724.34
2018-12-31T17:35:20.214Z,102728.47
2018-12-31T17:38:08.323Z,102718.80
2018-12-31T17:40:56.613Z,102727.28
2018-12-31T17:43:44.769Z,102723.94
2018-12-31T17:49:39.942Z,102723.11
2018-12-31T17:52:27.887Z,102712.09
2018-12-31T17:58:04.242Z,102711.25
2018-12-31T18:00:52.136Z,102698.56
2018-12-31T18:03:40.570Z,102690.94
2018-12-31T18:06:28.612Z,102688.38
2018-12-31T18:09:16.698Z,102685.05
2018-12-31T18:12:04.749Z,102690.94
2018-12-31T18:14:53.147Z,102684.61
2018-12-31T18:17:41.198Z,102693.12
2018-12-31T18:20:29.974Z,102687.21
2018-12-31T18:23:18.014Z,102681.28
2018-12-31T18:26:06.095Z,102687.60
2018-12-31T18:28:54.215Z,102684.17
2018-12-31T18:31:42.326Z,102684.25
2018-12-31T18:40:31.201Z,102691.03
2018-12-31T18:43:19.352Z,102683.81
2018-12-31T18:46:07.750Z,102686.73
2018-12-31T18:48:55.837Z,102683.36
2018-12-31T18:51:43.914Z,102679.08
2018-12-31T18:54:32.043Z,102696.86
2018-12-31T18:57:20.089Z,102682.40
2018-12-31T19:00:08.269Z,102669.56
2018-12-31T19:02:56.309Z,102664.13
2018-12-31T19:05:44.403Z,102659.45
2018-12-31T19:08:33.312Z,102656.42
2018-12-31T19:11:22.810Z,102654.27
2018-12-31T19:14:10.885Z,102646.64
2018-12-31T19:16:58.965Z,102652.98
2018-12-31T19:19:47.056Z,102651.30
2018-12-31T19:22:35.069Z,102646.73
2018-12-31T19:25:23.137Z,102654.80
2018-12-31T19:28:11.103Z,102650.91
2018-12-31T19:31:00.940Z,102638.16
2018-12-31T19:33:49.094Z,102635.72
2018-12-31T19:36:38.886Z,102631.03
2018-12-31T19:39:27.058Z,102627.26
2018-12-31T19:42:16.853Z,102628.44
2018-12-31T19:45:04.905Z,102614.09
2018-12-31T19:47:52.986Z,102618.69
2018-12-31T19:50:41.057Z,102607.68
2018-12-31T19:53:29.094Z,102605.11
2018-12-31T19:56:17.180Z,102600.09
2018-12-31T19:59:05.092Z,102582.65
2018-12-31T20:01:53.167Z,102590.28
2018-12-31T20:04:41.278Z,102581.34
2018-12-31T20:07:29.229Z,102577.11
2018-12-31T20:10:17.272Z,102590.66
2018-12-31T20:13:05.362Z,102589.41
2018-12-31T20:15:53.403Z,102579.25
2018-12-31T20:18:41.486Z,102564.80
2018-12-31T20:21:29.530Z,102564.35
2018-12-31T20:24:17.615Z,102577.11
2018-12-31T20:27:05.642Z,102577.92
2018-12-31T20:29:55.444Z,102568.58
2018-12-31T20:32:43.489Z,102567.78
2018-12-31T20:35:33.637Z,102578.80
2018-12-31T20:38:21.722Z,102564.80
2018-12-31T20:41:09.774Z,102550.41
2018-12-31T20:43:57.718Z,102542.34
2018-12-31T20:46:45.758Z,102545.78
2018-12-31T20:49:33.838Z,102543.17
2018-12-31T20:52:21.921Z,102536.44
2018-12-31T20:55:10.010Z,102542.78
2018-12-31T20:57:58.041Z,102537.27
2018-12-31T21:00:46.126Z,102532.17
2018-12-31T21:03:34.165Z,102535.98
2018-12-31T21:06:22.102Z,102512.27
2018-12-31T21:09:10.202Z,102510.21
2018-12-31T21:11:59.968Z,102501.23
2018-12-31T21:14:55.302Z,102505.88
2018-12-31T21:17:43.390Z,102497.80
2018-12-31T21:20:31.444Z,102493.14
2018-12-31T21:26:14.494Z,102492.25
2018-12-31T21:29:02.403Z,102489.70
2018-12-31T21:31:50.473Z,102482.92
2018-12-31T21:37:34.347Z,102474.41
2018-12-31T21:40:22.428Z,102446.03
2018-12-31T21:43:10.500Z,102441.39
2018-12-31T21:46:00.294Z,102440.11
2018-12-31T21:48:48.319Z,102430.34
2018-12-31T21:51:38.121Z,102425.69
2018-12-31T21:54:26.171Z,102424.41
2018-12-31T21:57:14.606Z,102418.87
2018-12-31T22:00:02.865Z,102407.88
2018-12-31T22:02:57.040Z,102405.77
2018-12-31T22:08:47.737Z,102397.72
2018-12-31T22:11:35.814Z,102374.38
2018-12-31T22:20:11.803Z,102368.43
2018-12-31T22:22:59.844Z,102355.70
2018-12-31T22:25:47.966Z,102358.64
2018-12-31T22:28:16.839Z,102349.77
2018-12-31T22:31:05.257Z,102349.33
2018-12-31T22:33:53.334Z,102339.63
2018-12-31T22:36:41.239Z,102328.55
2018-12-31T22:39:29.327Z,102326.42
2018-12-31T22:42:17.362Z,102324.28
2018-12-31T22:45:05.437Z,102315.81
2018-12-31T22:47:34.680Z,102319.64
2018-12-31T22:50:22.718Z,102319.23
2018-12-31T22:53:11.176Z,102320.93
2018-12-31T22:59:06.427Z,102314.17
2018-12-31T23:01:54.391Z,102310.33
2018-12-31T23:04:42.480Z,102307.39
2018-12-31T23:07:32.620Z,102302.31
2018-12-31T23:13:08.693Z,102280.27
2018-12-31T23:15:57.156Z,102275.59
2018-12-31T23:18:46.827Z,102261.60
2018-12-31T23:24:42.005Z,102267.14
2018-12-31T23:27:30.609Z,102265.88
2018-12-31T23:30:18.778Z,102254.86
2018-12-31T23:33:06.727Z,102232.41
2018-12-31T23:35:54.844Z,102238.77
2018-12-31T23:38:42.780Z,102226.05
2018-12-31T23:41:30.822Z,102204.03
2018-12-31T23:44:18.775Z,102206.16
2018-12-31T23:50:14.193Z,102190.05
2018-12-31T23:53:02.131Z,102188.36
2018-12-31T23:55:50.216Z,102203.61
2018-12-31T23:58:38.262Z,102193.03
